UTAV

Turkmenabat Airport

Türkmenabat, Turkmenistan
TAF UTAV 241630Z 2418/2518 05010KT 5000 NSC 530003 TEMPO 2419/2502 VRB04KT 2000 HZ FU SKC BECMG 2502/2504 07012KT CAVOK 530007 TEMPO 2504/2514 01016G26KT 3000 BLDU SCT050 560006
Issued Valid From Valid To
Sep-24 @ 16:30 UTC
(3 hours ago)
Sep-24 @ 18:00 UTC
(an hour ago)
Sep-25 @ 18:00 UTC
(in 23 hours)
Sep-24 @ 18:00 to Sep-25 @ 02:00
TAF UTAV 241630Z 2418/2518 05010KT 5000 NSC 530003
Wind Visibility Clouds Turbulence
50° at 10 knots 5,005 meters
  • No significant clouds
Frequent moderate clear air turbulence expected at the surface extending to 3,000' AGL
Temporary Sep-24 @ 19:00 to Sep-25 @ 02:00
TEMPO 2419/2502 VRB04KT 2000 HZ FU SKC
Wind Visibility Clouds Conditions
Variable at 4 knots 1,996 meters
  • Clear skies
  • Haze
  • Smoke
Becoming Sep-25 @ 02:00 to Sep-25 @ 18:00
BECMG 2502/2504 07012KT CAVOK 530007
Wind Visibility Clouds Conditions Turbulence
70° at 12 knots 10,000+ meters
  • No significant clouds
Frequent moderate clear air turbulence expected at the surface extending to 7,000' AGL
Temporary Sep-25 @ 04:00 to Sep-25 @ 14:00
TEMPO 2504/2514 01016G26KT 3000 BLDU SCT050 560006
Wind Visibility Clouds Conditions Turbulence
10° at 16 knots
 Gusting to 26 knots
2,993 meters
  • Scattered at 5,000' AGL
  • Blowing
  • Dust
Occasional severe clear air turbulence expected at the surface extending to 6,000' AGL
TAF UTAV 241630Z 2418/2518 05010KT 5000 NSC 530003 TEMPO 2419/2502 VRB04KT 2000 HZ FU SKC BECMG 2502/2504 07012KT CAVOK 530007 TEMPO 2504/2514 01016G26KT 3000 BLDU SCT050 560006
Issued Sep-24 @ 16:30 UTC
(3 hours ago)
Valid From Sep-24 @ 18:00 UTC
(an hour ago)
Valid To Sep-25 @ 18:00 UTC
(in 23 hours)
Sep-24 @ 18:00 - Sep-25 @ 02:00
Wind Visibility
50° at 10 knots 5,005 meters
Clouds
  • No significant clouds
Temporary Sep-24 @ 19:00 - Sep-25 @ 02:00
Wind Visibility
Variable at 4 knots 1,996 meters
Clouds
  • Clear skies
Conditions
  • Haze
  • Smoke
Becoming Sep-25 @ 02:00 - Sep-25 @ 18:00
Wind Visibility
70° at 12 knots 10,000+ meters
Clouds
  • No significant clouds
Conditions
Temporary Sep-25 @ 04:00 - Sep-25 @ 14:00
Wind Visibility
10° at 16 knots
 Gusting to 26 knots
2,993 meters
Clouds
  • Scattered at 5,000' AGL
Conditions
  • Blowing
  • Dust